^^
MeteoGriva-Weather Station Historical Data
Daily Summary for October 22, 2020 Units:  Metric    English   Both
Daily Weekly Monthly Yearly Custom
  High: Low: Average:
Temperature: 22.5 °C 11.4 °C 16.8 °C
Dew Point: 14.5 °C 8.5 °C 11.6 °C
Humidity: 86% 58.6% 72%
Wind Speed: 3.4km/h 0km/h 0.2km/h
Wind Gust: 12.2km/h - -
Wind- - SSE
Pressure: 1022.7 hPa 1019.0 hPa -
Precipitation: 0.0 mm    
Historical Graphs
 
 
Tabular Data for October 22, 2020
Time Temperature Dew Point Pressure Wind Wind Speed Wind Gust Humidity Rainfall Rate (Hourly) solar
00:04 14.3 °C 10.2 °C 1022.0 hPa Calm   4 km/h 76.4% 0.0 mm 0 W/m2
00:09 14.4 °C 10.1 °C 1022.0 hPa Calm     75.5% 0.0 mm 0 W/m2
00:14 14.6 °C 10 °C 1022.4 hPa Calm     73.9% 0.0 mm 0 W/m2
00:19 14.6 °C 10.1 °C 1022.4 hPa Calm     74.6% 0.0 mm 0 W/m2
00:24 14.6 °C 10.2 °C 1022.4 hPa Calm     74.9% 0.0 mm 0 W/m2
00:29 14.7 °C 10 °C 1022.4 hPa Calm     73.3% 0.0 mm 0 W/m2
00:34 14.8 °C 10.3 °C 1022.4 hPa Calm     74.2% 0.0 mm 0 W/m2
00:39 14.8 °C 10.4 °C 1022.4 hPa Calm     75.3% 0.0 mm 0 W/m2
00:44 14.7 °C 10.2 °C 1022.4 hPa Calm     74.7% 0.0 mm 0 W/m2
00:49 14.7 °C 10 °C 1022.4 hPa Calm     74% 0.0 mm 0 W/m2
00:54 14.5 °C 10.4 °C 1022.4 hPa Calm     76.4% 0.0 mm 0 W/m2
00:59 14.4 °C 10.3 °C 1022.4 hPa Calm     76.4% 0.0 mm 0 W/m2
01:04 14.4 °C 10.1 °C 1022.4 hPa Calm     75.3% 0.0 mm 0 W/m2
01:09 14.4 °C 10 °C 1022.0 hPa Calm     75% 0.0 mm 0 W/m2
01:14 14.4 °C 10 °C 1022.0 hPa Calm     75% 0.0 mm 0 W/m2
01:19 14.3 °C 10.1 °C 1022.0 hPa Calm     75.8% 0.0 mm 0 W/m2
01:24 14.3 °C 10 °C 1022.4 hPa Calm     75.3% 0.0 mm 0 W/m2
01:29 14.3 °C 10 °C 1022.0 hPa Calm     75.4% 0.0 mm 0 W/m2
01:34 14.2 °C 10 °C 1022.0 hPa Calm     76.2% 0.0 mm 0 W/m2
01:39 14.2 °C 10.2 °C 1022.0 hPa Calm     76.9% 0.0 mm 0 W/m2
01:44 14.1 °C 9.8 °C 1022.0 hPa Calm     75.4% 0.0 mm 0 W/m2
01:49 14.2 °C 9.8 °C 1022.0 hPa Calm     75% 0.0 mm 0 W/m2
01:54 14.4 °C 10 °C 1022.0 hPa Calm     74.8% 0.0 mm 0 W/m2
01:59 14.3 °C 10.1 °C 1022.0 hPa Calm     75.9% 0.0 mm 0 W/m2
02:04 14.3 °C 10 °C 1022.0 hPa Calm     75.6% 0.0 mm 0 W/m2
02:09 14.3 °C 9.8 °C 1022.0 hPa Calm     74% 0.0 mm 0 W/m2
02:14 14.5 °C 9.9 °C 1022.0 hPa Calm     74% 0.0 mm 0 W/m2
02:19 14.5 °C 10.1 °C 1022.0 hPa Calm     75% 0.0 mm 0 W/m2
02:24 14.5 °C 9.9 °C 1022.0 hPa Calm     74% 0.0 mm 0 W/m2
02:29 14.5 °C 9.8 °C 1022.0 hPa Calm     73.4% 0.0 mm 0 W/m2
02:34 14.8 °C 10 °C 1022.0 hPa Calm     73% 0.0 mm 0 W/m2
02:39 14.8 °C 9.8 °C 1022.0 hPa Calm     72.2% 0.0 mm 0 W/m2
02:44 14.9 °C 10 °C 1022.0 hPa Calm     72.4% 0.0 mm 0 W/m2
02:49 14.7 °C 10.1 °C 1022.0 hPa Calm     73.8% 0.0 mm 0 W/m2
02:54 14.5 °C 9.7 °C 1022.0 hPa Calm     73.1% 0.0 mm 0 W/m2
02:59 14.5 °C 9.8 °C 1021.7 hPa Calm     73.6% 0.0 mm 0 W/m2
03:04 14.4 °C 9.9 °C 1022.0 hPa Calm     74.2% 0.0 mm 0 W/m2
03:09 14.4 °C 10 °C 1021.7 hPa Calm     75% 0.0 mm 0 W/m2
03:14 14.1 °C 9.6 °C 1021.7 hPa Calm     74.6% 0.0 mm 0 W/m2
03:19 14.1 °C 9.4 °C 1021.7 hPa Calm     73.4% 0.0 mm 0 W/m2
03:24 14.2 °C 9.5 °C 1021.7 hPa Calm     73.6% 0.0 mm 0 W/m2
03:29 14.3 °C 9.8 °C 1021.3 hPa Calm     74% 0.0 mm 0 W/m2
03:34 14.6 °C 10 °C 1021.3 hPa Calm     73.9% 0.0 mm 0 W/m2
03:39 14.6 °C 9.9 °C 1021.3 hPa Calm     73.7% 0.0 mm 0 W/m2
03:44 14.6 °C 10.1 °C 1021.7 hPa Calm     74.4% 0.0 mm 0 W/m2
03:49 14.5 °C 10.1 °C 1021.3 hPa Calm     75.2% 0.0 mm 0 W/m2
03:54 14.1 °C 9.7 °C 1021.7 hPa Calm     75% 0.0 mm 0 W/m2
03:59 14.1 °C 9.4 °C 1021.3 hPa Calm     73.6% 0.0 mm 0 W/m2
04:04 14.2 °C 9.5 °C 1021.3 hPa Calm     73.7% 0.0 mm 0 W/m2
04:09 14.3 °C 9.5 °C 1021.7 hPa Calm     73.2% 0.0 mm 0 W/m2
04:14 14.2 °C 9.9 °C 1021.7 hPa Calm     75.4% 0.0 mm 0 W/m2
04:19 14.2 °C 10 °C 1021.7 hPa Calm     75.8% 0.0 mm 0 W/m2
04:24 14.1 °C 9.9 °C 1021.7 hPa Calm     75.9% 0.0 mm 0 W/m2
04:29 14.1 °C 10.1 °C 1021.7 hPa Calm     77% 0.0 mm 0 W/m2
04:34 13.8 °C 9.6 °C 1021.3 hPa Calm     76.2% 0.0 mm 0 W/m2
04:39 13.7 °C 9.8 °C 1021.3 hPa Calm     77.2% 0.0 mm 0 W/m2
04:44 13.7 °C 9.7 °C 1021.3 hPa Calm     77.1% 0.0 mm 0 W/m2
04:49 13.7 °C 9.8 °C 1021.3 hPa Calm     77.8% 0.0 mm 0 W/m2
04:54 13.3 °C 9.7 °C 1021.3 hPa Calm     79% 0.0 mm 0 W/m2
04:59 13.3 °C 9.6 °C 1021.3 hPa Calm     78.7% 0.0 mm 0 W/m2
05:04 13.3 °C 9.6 °C 1021.3 hPa Calm     78.4% 0.0 mm 0 W/m2
05:09 13.3 °C 9.7 °C 1021.3 hPa Calm     79% 0.0 mm 0 W/m2
05:14 13.4 °C 9.6 °C 1021.3 hPa Calm     78% 0.0 mm 0 W/m2
05:19 13.4 °C 9.4 °C 1021.3 hPa Calm     77.2% 0.0 mm 0 W/m2
05:24 13.4 °C 9.6 °C 1021.3 hPa Calm     78% 0.0 mm 0 W/m2
05:29 13.3 °C 9.7 °C 1021.3 hPa Calm     78.9% 0.0 mm 0 W/m2
05:34 13.4 °C 9.5 °C 1021.3 hPa Calm     77.8% 0.0 mm 0 W/m2
05:39 13.4 °C 9.4 °C 1021.3 hPa Calm     77% 0.0 mm 0 W/m2
05:44 13.4 °C 9.4 °C 1021.3 hPa Calm     77% 0.0 mm 0 W/m2
05:49 13.4 °C 9.6 °C 1021.3 hPa Calm     78% 0.0 mm 0 W/m2
05:54 13 °C 9.4 °C 1021.3 hPa Calm     79.3% 0.0 mm 0 W/m2
05:59 12.9 °C 9.4 °C 1021.3 hPa Calm     79.6% 0.0 mm 0 W/m2
06:04 12.9 °C 9.5 °C 1021.3 hPa Calm     79.8% 0.0 mm 0 W/m2
06:09 12.9 °C 9.6 °C 1021.3 hPa Calm     80.4% 0.0 mm 0 W/m2
06:14 12.7 °C 9.5 °C 1021.7 hPa Calm     80.8% 0.0 mm 0 W/m2
06:19 12.6 °C 9.6 °C 1021.3 hPa Calm     82.1% 0.0 mm 0 W/m2
06:24 12.5 °C 9.9 °C 1021.7 hPa Calm     83.9% 0.0 mm 0 W/m2
06:29 12.4 °C 9.6 °C 1021.7 hPa Calm     83.1% 0.0 mm 0 W/m2
06:34 12.4 °C 9.4 °C 1021.3 hPa Calm     81.8% 0.0 mm 0 W/m2
06:39 12.4 °C 9.4 °C 1021.3 hPa Calm     81.9% 0.0 mm 0 W/m2
06:44 12.4 °C 9.6 °C 1021.3 hPa Calm     83.2% 0.0 mm 0 W/m2
06:49 12.3 °C 9.9 °C 1021.3 hPa Calm     85.1% 0.0 mm 0 W/m2
06:54 11.7 °C 9.4 °C 1021.3 hPa Calm     86% 0.0 mm 0 W/m2
06:59 11.4 °C 9 °C 1021.3 hPa Calm     85.1% 0.0 mm 0 W/m2
07:04 11.4 °C 8.8 °C 1021.3 hPa Calm     83.6% 0.0 mm 0 W/m2
07:09 11.6 °C 8.5 °C 1021.3 hPa Calm     81.6% 0.0 mm 0 W/m2
07:14 12.3 °C 9.1 °C 1021.3 hPa Calm     81.1% 0.0 mm 0 W/m2
07:19 12.5 °C 9.2 °C 1021.3 hPa Calm     80.8% 0.0 mm 0 W/m2
07:24 12.5 °C 9.2 °C 1021.3 hPa Calm     80.8% 0.0 mm 0 W/m2
07:29 12.5 °C 9.4 °C 1021.3 hPa Calm     81.4% 0.0 mm 0 W/m2
07:34 12.2 °C 9.2 °C 1021.3 hPa Calm     81.9% 0.0 mm 0 W/m2
07:39 12.1 °C 8.7 °C 1021.3 hPa Calm     79.7% 0.0 mm 0 W/m2
07:44 12.2 °C 8.9 °C 1021.3 hPa Calm     80% 0.0 mm 0 W/m2
07:49 12.2 °C 8.9 °C 1021.3 hPa Calm     80% 0.0 mm 0 W/m2
07:54 12.6 °C 9.2 °C 1021.7 hPa Calm     79.8% 0.0 mm 4 W/m2
07:59 12.8 °C 9.2 °C 1021.7 hPa Calm     79.1% 0.0 mm 8 W/m2
08:04 12.8 °C 9.2 °C 1021.7 hPa Calm     78% 0.0 mm 16 W/m2
08:09 12.9 °C 9.3 °C 1021.7 hPa Calm     78.1% 0.0 mm 22 W/m2
08:14 13.3 °C 9.6 °C 1021.7 hPa Calm     78.1% 0.0 mm 28 W/m2
08:19 13.5 °C 9.8 °C 1021.7 hPa Calm     78.3% 0.0 mm 34 W/m2
08:24 13.5 °C 9.7 °C 1021.7 hPa Calm     77.7% 0.0 mm 40 W/m2
08:29 13.7 °C 9.4 °C 1021.7 hPa Calm     75.5% 0.0 mm 46 W/m2
08:34 14.9 °C 10.2 °C 1021.7 hPa Calm     73.2% 0.0 mm 51 W/m2
08:39 15.6 °C 10.2 °C 1022.0 hPa Calm     70.2% 0.0 mm 56 W/m2
08:44 15.8 °C 9.9 °C 1022.0 hPa Calm     68.1% 0.0 mm 60 W/m2
08:49 16.1 °C 9.9 °C 1022.0 hPa Calm     66.8% 0.0 mm 65 W/m2
08:54 16.3 °C 10.3 °C 1022.0 hPa Calm     67.4% 0.0 mm 68 W/m2
08:59 16.3 °C 10.9 °C 1022.0 hPa Calm     70.4% 0.0 mm 94 W/m2
09:04 16.2 °C 11.3 °C 1022.0 hPa Calm     72.4% 0.0 mm 106 W/m2
09:09 16.2 °C 11 °C 1022.0 hPa Calm     71.8% 0.0 mm 77 W/m2
09:14 16 °C 10.7 °C 1022.0 hPa Calm     71% 0.0 mm 79 W/m2
09:19 16 °C 10.6 °C 1022.0 hPa Calm     70.2% 0.0 mm 81 W/m2
09:24 16.2 °C 9.9 °C 1022.4 hPa Calm     66% 0.0 mm 83 W/m2
09:29 16.6 °C 10.2 °C 1022.4 hPa Calm     65.7% 0.0 mm 85 W/m2
09:34 16.7 °C 11.6 °C 1022.4 hPa Calm   7.9 km/h 72% 0.0 mm 86 W/m2
09:39 16.6 °C 10.8 °C 1022.4 hPa Calm     68.7% 0.0 mm 87 W/m2
09:44 16.8 °C 10.5 °C 1022.4 hPa Calm     66.2% 0.0 mm 88 W/m2
09:49 17.2 °C 10.4 °C 1022.4 hPa Calm     64.6% 0.0 mm 89 W/m2
09:54 18.2 °C 11.4 °C 1022.4 hPa Calm     64.6% 0.0 mm 89 W/m2
09:59 19.1 °C 12.6 °C 1022.7 hPa Calm     66.3% 0.0 mm 90 W/m2
10:04 19 °C 12.5 °C 1022.4 hPa Calm     66% 0.0 mm 90 W/m2
10:09 18.9 °C 12.2 °C 1022.4 hPa Calm     65% 0.0 mm 91 W/m2
10:14 19.1 °C 12.2 °C 1022.4 hPa Calm     64.4% 0.0 mm 93 W/m2
10:19 19.4 °C 12.6 °C 1022.4 hPa Calm     64.7% 0.0 mm 95 W/m2
10:24 19.4 °C 12.5 °C 1022.4 hPa Calm     64.2% 0.0 mm 98 W/m2
10:29 19.4 °C 12.6 °C 1022.4 hPa Calm     64.8% 0.0 mm 101 W/m2
10:34 19.1 °C 12.4 °C 1022.0 hPa Calm     65.1% 0.0 mm 104 W/m2
10:39 18.7 °C 12 °C 1022.4 hPa Calm     65.2% 0.0 mm 108 W/m2
10:44 18.8 °C 12 °C 1022.4 hPa SSE 0.6 km/h 7.9 km/h 64.6% 0.0 mm 113 W/m2
10:49 18.9 °C 12.3 °C 1022.4 hPa ESE 0.1 km/h 7.9 km/h 65.1% 0.0 mm 117 W/m2
10:54 19 °C 12.4 °C 1022.4 hPa SSE 0.5 km/h 7.9 km/h 65.7% 0.0 mm 122 W/m2
10:59 19 °C 12.4 °C 1022.4 hPa SSE 0.1 km/h 7.9 km/h 65.6% 0.0 mm 126 W/m2
11:04 19 °C 12.4 °C 1022.4 hPa SSE 0.2 km/h 4 km/h 65.4% 0.0 mm 131 W/m2
11:09 19.2 °C 12.7 °C 1022.0 hPa ESE 0.1 km/h 4 km/h 66% 0.0 mm 137 W/m2
11:14 19.1 °C 13 °C 1022.0 hPa East 0.6 km/h 7.9 km/h 67.7% 0.0 mm 142 W/m2
11:19 18.5 °C 12.5 °C 1022.0 hPa SE 0.1 km/h 4 km/h 67.7% 0.0 mm 149 W/m2
11:24 18.7 °C 12.5 °C 1022.4 hPa Calm   4 km/h 67.2% 0.0 mm 154 W/m2
11:29 18.8 °C 12.3 °C 1022.0 hPa Calm     66.2% 0.0 mm 161 W/m2
11:34 18.6 °C 12.3 °C 1022.4 hPa Calm     66.4% 0.0 mm 168 W/m2
11:39 17.9 °C 11.6 °C 1022.4 hPa Calm     66.4% 0.0 mm 173 W/m2
11:44 18 °C 11.9 °C 1022.4 hPa East 0.4 km/h 7.9 km/h 67.6% 0.0 mm 181 W/m2
11:49 18.1 °C 11.7 °C 1022.4 hPa ENE 0.2 km/h 4 km/h 66.3% 0.0 mm 189 W/m2
11:54 18.3 °C 12.8 °C 1022.0 hPa Calm     70.4% 0.0 mm 197 W/m2
11:59 18.6 °C 12.8 °C 1022.0 hPa South 0.7 km/h 7.9 km/h 68.9% 0.0 mm 205 W/m2
12:04 18.7 °C 12.5 °C 1022.4 hPa Calm   7.9 km/h 67.1% 0.0 mm 214 W/m2
12:09 18.8 °C 12.4 °C 1022.4 hPa Calm     66.4% 0.0 mm 221 W/m2
12:14 19.2 °C 12.9 °C 1022.4 hPa SE 0.6 km/h 7.9 km/h 66.8% 0.0 mm 232 W/m2
12:19 19.8 °C 13.4 °C 1022.4 hPa SE 0.2 km/h 7.9 km/h 66.4% 0.0 mm 242 W/m2
12:24 19.8 °C 13.2 °C 1022.0 hPa SE 1 km/h 7.9 km/h 65.8% 0.0 mm 251 W/m2
12:29 19.8 °C 13.2 °C 1022.4 hPa South 0.8 km/h 7.9 km/h 65.8% 0.0 mm 262 W/m2
12:34 19.7 °C 13.2 °C 1022.4 hPa SSE 2.4 km/h 12.2 km/h 66.1% 0.0 mm 271 W/m2
12:39 19.5 °C 13 °C 1022.4 hPa Calm   7.9 km/h 66.1% 0.0 mm 282 W/m2
12:44 19.6 °C 13.1 °C 1022.0 hPa SE 0.5 km/h 7.9 km/h 65.9% 0.0 mm 294 W/m2
12:49 19.7 °C 13.1 °C 1022.0 hPa Calm     65.7% 0.0 mm 302 W/m2
12:54 19.8 °C 13.1 °C 1022.0 hPa SSE 0.6 km/h 7.9 km/h 65.6% 0.0 mm 316 W/m2
12:59 20.1 °C 13.6 °C 1021.7 hPa South 1.8 km/h 12.2 km/h 66.2% 0.0 mm 326 W/m2
13:04 20.1 °C 13.6 °C 1022.0 hPa SSE 1.6 km/h 7.9 km/h 66.4% 0.0 mm 333 W/m2
13:09 20 °C 13.5 °C 1021.7 hPa Calm   7.9 km/h 66.2% 0.0 mm 344 W/m2
13:14 19.9 °C 13.4 °C 1021.7 hPa ESE 0.1 km/h 4 km/h 66.3% 0.0 mm 354 W/m2
13:19 19 °C 13 °C 1021.7 hPa ENE 1.1 km/h 7.9 km/h 68% 0.0 mm 359 W/m2
13:24 19.1 °C 12.6 °C 1021.3 hPa SSE 0.9 km/h 7.9 km/h 66.2% 0.0 mm 373 W/m2
13:29 19.3 °C 12.8 °C 1021.3 hPa SSE 0.5 km/h 7.9 km/h 66% 0.0 mm 382 W/m2
13:34 19.4 °C 12.9 °C 1021.3 hPa ENE 0.7 km/h 7.9 km/h 66% 0.0 mm 388 W/m2
13:39 19.2 °C 12.8 °C 1021.3 hPa Calm   7.9 km/h 66.5% 0.0 mm 399 W/m2
13:44 19.4 °C 12.7 °C 1021.3 hPa Calm   7.9 km/h 64.9% 0.0 mm 409 W/m2
13:49 19.7 °C 12.8 °C 1021.0 hPa ESE 0.8 km/h 7.9 km/h 64.3% 0.0 mm 412 W/m2
13:54 20.2 °C 13.1 °C 1021.0 hPa SE 0.3 km/h 4 km/h 64% 0.0 mm 419 W/m2
13:59 21.2 °C 14.2 °C 1021.0 hPa SSW 0.2 km/h 4 km/h 64% 0.0 mm 420 W/m2
14:04 21.2 °C 14 °C 1021.0 hPa SSE 0.1 km/h 7.9 km/h 63.7% 0.0 mm 416 W/m2
14:09 21.2 °C 14.2 °C 1020.7 hPa South 1.2 km/h 7.9 km/h 64.2% 0.0 mm 422 W/m2
14:14 21.3 °C 14.2 °C 1020.7 hPa SSE 0.6 km/h 7.9 km/h 64% 0.0 mm 420 W/m2
14:19 21.3 °C 14.2 °C 1020.7 hPa SSE 0.2 km/h 4 km/h 64% 0.0 mm 417 W/m2
14:24 21.3 °C 14.3 °C 1020.7 hPa NE 0.4 km/h 4 km/h 64.3% 0.0 mm 416 W/m2
14:29 21.2 °C 14.5 °C 1020.7 hPa Calm   7.9 km/h 65.4% 0.0 mm 415 W/m2
14:34 21.1 °C 14.2 °C 1020.7 hPa Calm   4 km/h 64.8% 0.0 mm 419 W/m2
14:39 21.4 °C 14.3 °C 1020.7 hPa Calm   4 km/h 64% 0.0 mm 418 W/m2
14:44 21.4 °C 14.4 °C 1020.3 hPa ESE 0.7 km/h 12.2 km/h 64.7% 0.0 mm 418 W/m2
14:49 21.3 °C 14.5 °C 1020.3 hPa Calm   7.9 km/h 64.9% 0.0 mm 417 W/m2
14:54 21.3 °C 14.3 °C 1020.3 hPa SE 0.4 km/h 7.9 km/h 64.2% 0.0 mm 416 W/m2
14:59 21.4 °C 14.3 °C 1020.3 hPa Calm   7.9 km/h 63.9% 0.0 mm 416 W/m2
15:04 21.4 °C 14.4 °C 1020.0 hPa ENE 1 km/h 12.2 km/h 64.4% 0.0 mm 414 W/m2
15:08 21.3 °C 14.2 °C 1020.3 hPa SE 1.2 km/h 12.2 km/h 63.9% 0.0 mm 410 W/m2
15:14 21.3 °C 14 °C 1020.0 hPa Calm   7.9 km/h 62.8% 0.0 mm 380 W/m2
15:19 21.9 °C 14.1 °C 1019.6 hPa South 1.9 km/h 12.2 km/h 61.4% 0.0 mm 404 W/m2
15:24 22 °C 14.1 °C 1019.6 hPa SSE 1.7 km/h 12.2 km/h 61.1% 0.0 mm 403 W/m2
15:29 22 °C 14 °C 1019.6 hPa South 0.4 km/h 7.9 km/h 60.7% 0.0 mm 401 W/m2
15:34 22 °C 14 °C 1019.6 hPa SSE 0.7 km/h 7.9 km/h 60.4% 0.0 mm 400 W/m2
15:39 22.4 °C 14.3 °C 1019.6 hPa SSE 1.1 km/h 7.9 km/h 60.2% 0.0 mm 396 W/m2
15:44 22.4 °C 14.1 °C 1019.6 hPa Calm   7.9 km/h 59.3% 0.0 mm 392 W/m2
15:49 22.5 °C 14 °C 1019.6 hPa SSE 3.4 km/h 12.2 km/h 58.9% 0.0 mm 390 W/m2
15:54 22.4 °C 14.4 °C 1019.6 hPa SSE 2.1 km/h 12.2 km/h 60.4% 0.0 mm 383 W/m2
15:59 22 °C 14 °C 1019.6 hPa SW 0.2 km/h 12.2 km/h 60.2% 0.0 mm 376 W/m2
16:04 22 °C 13.7 °C 1019.6 hPa SSE 0.9 km/h 7.9 km/h 59.2% 0.0 mm 368 W/m2
16:09 22.1 °C 13.6 °C 1019.6 hPa SE 0.3 km/h 7.9 km/h 58.6% 0.0 mm 364 W/m2
16:14 22.1 °C 13.8 °C 1019.6 hPa South 0.7 km/h 7.9 km/h 59.3% 0.0 mm 356 W/m2
16:19 22.3 °C 14.1 °C 1019.6 hPa SE 0.6 km/h 12.2 km/h 59.4% 0.0 mm 339 W/m2
16:24 22.4 °C 14.3 °C 1019.6 hPa South 1.6 km/h 12.2 km/h 60% 0.0 mm 284 W/m2
16:29 22.3 °C 14.3 °C 1019.6 hPa SE 1.7 km/h 12.2 km/h 60.3% 0.0 mm 334 W/m2
16:34 22.2 °C 14.2 °C 1019.6 hPa Calm   4 km/h 60.6% 0.0 mm 331 W/m2
16:39 21.5 °C 13.8 °C 1019.3 hPa SSE 0.3 km/h 4 km/h 61.7% 0.0 mm 325 W/m2
16:44 21.3 °C 13.6 °C 1019.3 hPa SE 0.4 km/h 7.9 km/h 61.7% 0.0 mm 320 W/m2
16:49 21.3 °C 13.7 °C 1019.6 hPa SSE 0.4 km/h 7.9 km/h 61.9% 0.0 mm 176 W/m2
16:54 21.2 °C 13.8 °C 1019.3 hPa Calm     62.7% 0.0 mm 75 W/m2
16:59 20.6 °C 13.5 °C 1019.3 hPa Calm     63.8% 0.0 mm 50 W/m2
17:04 20.3 °C 13.5 °C 1019.3 hPa SSE 0.7 km/h 4 km/h 65% 0.0 mm 48 W/m2
17:09 20.2 °C 13.7 °C 1019.3 hPa Calm   4 km/h 66.3% 0.0 mm 45 W/m2
17:14 20 °C 13.7 °C 1019.3 hPa Calm     67% 0.0 mm 43 W/m2
17:19 19.3 °C 13.3 °C 1019.3 hPa Calm     68% 0.0 mm 42 W/m2
17:24 19.1 °C 13.4 °C 1019.3 hPa Calm     69.4% 0.0 mm 40 W/m2
17:29 19 °C 13.7 °C 1019.3 hPa Calm     71.2% 0.0 mm 38 W/m2
17:34 18.9 °C 14 °C 1019.3 hPa Calm     73% 0.0 mm 36 W/m2
17:39 18.3 °C 13.5 °C 1019.0 hPa Calm     73.6% 0.0 mm 34 W/m2
17:44 18 °C 13.2 °C 1019.3 hPa Calm     73.6% 0.0 mm 32 W/m2
17:49 18 °C 13.3 °C 1019.3 hPa Calm     74.2% 0.0 mm 30 W/m2
17:54 17.9 °C 13.4 °C 1019.3 hPa Calm     75% 0.0 mm 28 W/m2
17:59 17.5 °C 13 °C 1019.3 hPa Calm     74.8% 0.0 mm 25 W/m2
18:04 17.3 °C 12.7 °C 1019.3 hPa Calm     74.6% 0.0 mm 23 W/m2
18:09 17.3 °C 12.6 °C 1019.3 hPa Calm     74% 0.0 mm 21 W/m2
18:14 17.3 °C 12.7 °C 1019.0 hPa Calm     74.7% 0.0 mm 19 W/m2
18:19 17.2 °C 12.7 °C 1019.3 hPa Calm     75% 0.0 mm 16 W/m2
18:24 17 °C 12.5 °C 1019.0 hPa Calm     74.9% 0.0 mm 12 W/m2
18:29 17 °C 12.5 °C 1019.3 hPa Calm     74.7% 0.0 mm 9 W/m2
18:34 17.1 °C 12.6 °C 1019.3 hPa Calm     75% 0.0 mm 6 W/m2
18:39 17 °C 12.5 °C 1019.3 hPa Calm     75% 0.0 mm 4 W/m2
18:44 17 °C 12.5 °C 1019.3 hPa Calm     75% 0.0 mm 0 W/m2
18:49 17 °C 12.5 °C 1019.6 hPa Calm     75% 0.0 mm 0 W/m2
18:54 17 °C 12.5 °C 1019.6 hPa Calm     75% 0.0 mm 0 W/m2
18:59 17 °C 12.5 °C 1019.6 hPa Calm     75% 0.0 mm 0 W/m2
19:04 16.9 °C 12.4 °C 1019.6 hPa Calm     75% 0.0 mm 0 W/m2
19:09 17 °C 12.5 °C 1019.6 hPa Calm     75% 0.0 mm 0 W/m2
19:14 17 °C 12.5 °C 1019.6 hPa Calm     75% 0.0 mm 0 W/m2
19:19 17 °C 12.5 °C 1019.6 hPa Calm     75% 0.0 mm 0 W/m2
19:24 17 °C 12.4 °C 1020.0 hPa Calm     74.7% 0.0 mm 0 W/m2
19:29 17 °C 12.4 °C 1020.0 hPa Calm     74.6% 0.0 mm 0 W/m2
19:34 17 °C 12.4 °C 1020.0 hPa Calm     74.6% 0.0 mm 0 W/m2
19:39 17.1 °C 12.4 °C 1020.0 hPa Calm     74% 0.0 mm 0 W/m2
19:44 17.2 °C 12.6 °C 1020.0 hPa Calm     74.3% 0.0 mm 0 W/m2
19:49 17.2 °C 12.6 °C 1020.3 hPa Calm     74.5% 0.0 mm 0 W/m2
19:54 17.1 °C 12.5 °C 1020.0 hPa Calm     74.6% 0.0 mm 0 W/m2
19:59 17 °C 12.3 °C 1020.3 hPa Calm     73.8% 0.0 mm 0 W/m2
20:04 16.9 °C 12.1 °C 1020.3 hPa Calm     73.3% 0.0 mm 0 W/m2
20:09 17 °C 12.1 °C 1020.3 hPa Calm     73.1% 0.0 mm 0 W/m2
20:14 17 °C 12.2 °C 1020.3 hPa Calm   4 km/h 73.4% 0.0 mm 0 W/m2
20:19 17 °C 12.2 °C 1020.3 hPa Calm   4 km/h 73% 0.0 mm 0 W/m2
20:24 17.1 °C 11.9 °C 1020.3 hPa Calm     71.3% 0.0 mm 0 W/m2
20:29 17.2 °C 12 °C 1020.3 hPa Calm     71.9% 0.0 mm 0 W/m2
20:34 17.2 °C 12.1 °C 1020.3 hPa Calm     72.1% 0.0 mm 0 W/m2
20:39 17.3 °C 12.2 °C 1020.3 hPa Calm     72% 0.0 mm 0 W/m2
20:44 17.3 °C 12.3 °C 1020.7 hPa Calm     72% 0.0 mm 0 W/m2
20:49 17.3 °C 12.2 °C 1020.7 hPa Calm     71.8% 0.0 mm 0 W/m2
20:54 17.3 °C 12.2 °C 1020.3 hPa Calm     72% 0.0 mm 0 W/m2
20:59 17.3 °C 12.2 °C 1020.7 hPa Calm     72% 0.0 mm 0 W/m2
21:04 17.1 °C 12 °C 1020.7 hPa Calm     72.2% 0.0 mm 0 W/m2
21:09 17.2 °C 12.2 °C 1020.7 hPa Calm     72.6% 0.0 mm 0 W/m2
21:14 17.1 °C 12.1 °C 1020.7 hPa Calm     72.4% 0.0 mm 0 W/m2
21:19 17.1 °C 12 °C 1020.7 hPa Calm     72.4% 0.0 mm 0 W/m2
21:24 17 °C 12 °C 1021.0 hPa Calm     72.7% 0.0 mm 0 W/m2
21:29 17 °C 12.1 °C 1020.7 hPa Calm     73% 0.0 mm 0 W/m2
21:34 17 °C 12 °C 1020.7 hPa Calm     72.3% 0.0 mm 0 W/m2
21:39 16.9 °C 12 °C 1020.7 hPa WNW 1.1 km/h 7.9 km/h 73.2% 0.0 mm 0 W/m2
21:44 16.5 °C 11.6 °C 1020.7 hPa Calm     73% 0.0 mm 0 W/m2
21:49 16.5 °C 11.4 °C 1020.7 hPa Calm     72% 0.0 mm 0 W/m2
21:54 16.6 °C 11.5 °C 1020.7 hPa Calm     72.1% 0.0 mm 0 W/m2
21:59 16.7 °C 11.5 °C 1020.7 hPa Calm     71.6% 0.0 mm 0 W/m2
22:04 17.1 °C 11.8 °C 1021.0 hPa Calm     71% 0.0 mm 0 W/m2
22:14 17.1 °C 11.9 °C 1021.0 hPa Calm     71.7% 0.0 mm 0 W/m2
22:19 17.1 °C 12 °C 1021.0 hPa Calm     72% 0.0 mm 0 W/m2
22:24 16.8 °C 11.8 °C 1021.0 hPa Calm     72.3% 0.0 mm 0 W/m2
22:29 16.7 °C 11.8 °C 1021.3 hPa Calm     73.2% 0.0 mm 0 W/m2
22:34 16.7 °C 11.8 °C 1021.0 hPa Calm     73% 0.0 mm 0 W/m2
22:39 16.7 °C 11.7 °C 1021.3 hPa Calm     72.9% 0.0 mm 0 W/m2
22:44 16.8 °C 11.8 °C 1021.3 hPa Calm     72.2% 0.0 mm 0 W/m2
22:49 16.8 °C 11.9 °C 1021.0 hPa Calm     73% 0.0 mm 0 W/m2
22:54 16.7 °C 11.7 °C 1021.3 hPa Calm     72.4% 0.0 mm 0 W/m2
22:59 16.7 °C 11.6 °C 1021.3 hPa Calm     72.2% 0.0 mm 0 W/m2
23:04 16.5 °C 11.5 °C 1021.3 hPa Calm     72.4% 0.0 mm 0 W/m2
23:09 16.5 °C 11.4 °C 1021.3 hPa Calm     72% 0.0 mm 0 W/m2
23:14 16.5 °C 11.4 °C 1021.3 hPa Calm     71.8% 0.0 mm 0 W/m2
23:19 16.5 °C 11.3 °C 1021.3 hPa Calm     71.6% 0.0 mm 0 W/m2
23:24 16.5 °C 11.3 °C 1021.3 hPa Calm     71.2% 0.0 mm 0 W/m2
23:29 16.5 °C 11.4 °C 1021.3 hPa Calm     71.9% 0.0 mm 0 W/m2
23:34 16.4 °C 11.6 °C 1021.3 hPa Calm     73.2% 0.0 mm 0 W/m2
23:39 16.3 °C 11.4 °C 1021.3 hPa Calm     72.6% 0.0 mm 0 W/m2
23:44 16.2 °C 11 °C 1021.3 hPa Calm     71.6% 0.0 mm 0 W/m2
23:49 16.2 °C 10.9 °C 1021.3 hPa Calm     71% 0.0 mm 0 W/m2
23:54 16.2 °C 11.1 °C 1021.3 hPa Calm     72% 0.0 mm 0 W/m2
23:59 16.2 °C 11.2 °C 1021.3 hPa Calm     72% 0.0 mm 0 W/m2
Juneau County Weather
Compliments of Weather Underground - 2 mb